Elk Creek, Virginia
Current Conditions -  °F | °C
As of 12:35 PM on Friday 19 Dec 2014 (Local Time) from KMKJ Reporting Station
Clear Clear  
Wind Chill: 35°   Ceiling: Unl
Heat Index: 41°   Visibility: 10mi
Dew Point: 21°   Wind: 10mph
Humidity: 45%   Direction: 280°W
Pressure: 30.14"   Gusts: NA
Location:  36.72°N, 81.18°W
Report Text: KMKJ 191735Z AUTO 28009KT 10SM CLR 05/M06 A3014 RMK AO2 T00501062
Loading
Personal Weather Stations






























Interactive Weather Map New forecast layout! Learn more

10-Day Weather Forecast

Advertisements
Track Severe Weather on mobile